createdAt,value
2023-02-28T00:00:12.732Z,99940.56
2023-02-28T00:01:46.080Z,99935.34
2023-02-28T00:03:20.026Z,99931.91
2023-02-28T00:04:54.141Z,99949.56
2023-02-28T00:06:27.482Z,99954.75
2023-02-28T00:07:59.817Z,99956.56
2023-02-28T00:09:34.593Z,99958.19
2023-02-28T00:11:11.502Z,99963.44
2023-02-28T00:12:44.927Z,99971.16
2023-02-28T00:14:18.044Z,99958.84
2023-02-28T00:16:02.204Z,99954.34
2023-02-28T00:17:35.372Z,99956.97
2023-02-28T00:19:09.032Z,99954.28
2023-02-28T00:20:41.249Z,99961.28
2023-02-28T00:22:14.996Z,99962.97
2023-02-28T00:23:48.475Z,99960.28
2023-02-28T00:25:24.849Z,99962.88
2023-02-28T00:26:58.115Z,99965.50
2023-02-28T00:28:31.742Z,99964.53
2023-02-28T00:30:07.838Z,99971.59
2023-02-28T00:31:41.400Z,99971.59
2023-02-28T00:33:14.788Z,99969.81
2023-02-28T00:34:47.062Z,99969.78
2023-02-28T00:36:21.647Z,99971.53
2023-02-28T00:37:55.010Z,99973.31
2023-02-28T00:39:28.279Z,99969.00
2023-02-28T00:41:06.145Z,99968.13
2023-02-28T00:42:39.440Z,99964.59
2023-02-28T00:44:13.124Z,99962.78
2023-02-28T00:45:46.408Z,99967.13
2023-02-28T00:47:20.103Z,99957.50
2023-02-28T00:48:53.529Z,99967.19
2023-02-28T00:50:27.103Z,99961.91
2023-02-28T00:52:00.232Z,99963.59
2023-02-28T00:53:34.727Z,99952.06
2023-02-28T00:55:08.457Z,99961.69
2023-02-28T00:56:43.154Z,99953.75
2023-02-28T00:58:16.485Z,99958.16
2023-02-28T00:59:49.923Z,99952.94
2023-02-28T01:01:23.301Z,99951.19
2023-02-28T01:02:55.914Z,99947.72
2023-02-28T01:04:29.503Z,99949.50
2023-02-28T01:06:02.906Z,99959.13
2023-02-28T01:07:36.029Z,99956.47
2023-02-28T01:09:09.892Z,99960.81
2023-02-28T01:10:43.385Z,99950.25
2023-02-28T01:12:18.213Z,99959.03
2023-02-28T01:13:54.615Z,99953.69
2023-02-28T01:15:28.079Z,99951.97
2023-02-28T01:17:01.372Z,99956.28
2023-02-28T01:18:34.947Z,99950.09
2023-02-28T01:20:11.144Z,99957.09
2023-02-28T01:21:44.710Z,99943.81
2023-02-28T01:23:20.414Z,99948.16
2023-02-28T01:24:54.081Z,99937.59
2023-02-28T01:26:27.429Z,99948.09
2023-02-28T01:28:02.290Z,99946.44
2023-02-28T01:29:35.656Z,99955.16
2023-02-28T01:31:10.081Z,99958.66
2023-02-28T01:32:44.596Z,99958.59
2023-02-28T01:34:20.190Z,99948.06
2023-02-28T01:36:00.152Z,99955.06
2023-02-28T01:37:33.558Z,99962.97
2023-02-28T01:39:06.930Z,99952.44
2023-02-28T01:40:39.546Z,99947.16
2023-02-28T01:42:12.734Z,99944.50
2023-02-28T01:44:09.587Z,99946.38
2023-02-28T01:45:42.252Z,99959.47
2023-02-28T01:47:15.818Z,99962.97
2023-02-28T01:48:54.004Z,99959.47
2023-02-28T01:50:30.631Z,99965.56
2023-02-28T01:52:06.042Z,99967.28
2023-02-28T01:53:48.734Z,99965.63
2023-02-28T01:55:23.519Z,99971.84
2023-02-28T01:57:01.365Z,99970.13
2023-02-28T01:58:35.139Z,99964.81
2023-02-28T02:00:14.341Z,99969.44
2023-02-28T02:01:47.540Z,99982.63
2023-02-28T02:03:22.859Z,99984.38
2023-02-28T02:05:00.361Z,99991.44
2023-02-28T02:06:38.199Z,99999.31
2023-02-28T02:08:16.498Z,99997.53
2023-02-28T02:09:49.947Z,100010.78
2023-02-28T02:11:25.422Z,100001.22
2023-02-28T02:13:31.944Z,99993.31
2023-02-28T02:15:11.844Z,99998.50
2023-02-28T02:17:02.452Z,100002.94
2023-02-28T02:18:40.467Z,99999.44
2023-02-28T02:20:53.182Z,100006.50
2023-02-28T02:23:04.038Z,100014.44
2023-02-28T02:25:22.210Z,100014.34
2023-02-28T02:27:07.453Z,100006.50
2023-02-28T02:29:08.753Z,99996.06
2023-02-28T02:31:03.116Z,100007.38
2023-02-28T02:33:21.315Z,100008.28
2023-02-28T02:35:04.051Z,100008.28
2023-02-28T02:36:42.763Z,99997.88
2023-02-28T02:38:25.405Z,100001.31
2023-02-28T02:40:04.548Z,100004.00
2023-02-28T02:41:47.421Z,100004.88
2023-02-28T02:43:27.308Z,99994.31
2023-02-28T02:45:07.653Z,99984.69
2023-02-28T02:46:44.803Z,99983.78
2023-02-28T02:48:21.750Z,99978.50
2023-02-28T02:50:02.211Z,99968.84
2023-02-28T02:51:39.571Z,99968.06
2023-02-28T02:53:16.065Z,99959.44
2023-02-28T02:54:52.167Z,99956.25
2023-02-28T02:56:30.000Z,99960.78
2023-02-28T02:58:06.775Z,99958.28
2023-02-28T02:59:41.815Z,99961.84
2023-02-28T03:01:18.548Z,99960.97
2023-02-28T03:02:56.007Z,99963.66
2023-02-28T03:04:34.458Z,99961.88
2023-02-28T03:06:09.326Z,99957.50
2023-02-28T03:07:42.925Z,99952.34
2023-02-28T03:09:17.680Z,99952.34
2023-02-28T03:10:54.696Z,99949.91
2023-02-28T03:12:38.245Z,99942.97
2023-02-28T03:14:32.103Z,99948.25
2023-02-28T03:16:24.174Z,99936.03
2023-02-28T03:18:06.769Z,99949.91
2023-02-28T03:19:57.911Z,99937.56
2023-02-28T03:21:41.245Z,99941.88
2023-02-28T03:23:19.343Z,99943.69
2023-02-28T03:25:02.105Z,99953.34
2023-02-28T03:26:39.245Z,99951.59
2023-02-28T03:28:18.020Z,99956.81
2023-02-28T03:29:59.519Z,99956.78
2023-02-28T03:31:35.794Z,99950.69
2023-02-28T03:33:14.641Z,99961.97
2023-02-28T03:34:58.175Z,99964.47
2023-02-28T03:36:34.628Z,99968.78
2023-02-28T03:38:15.515Z,99975.75
2023-02-28T03:39:53.785Z,99980.09
2023-02-28T03:41:33.249Z,99982.59
2023-02-28T03:43:14.526Z,99975.47
2023-02-28T03:44:53.636Z,99971.03
2023-02-28T03:46:31.935Z,99961.34
2023-02-28T03:48:12.199Z,99970.16
2023-02-28T03:49:51.616Z,99971.94
2023-02-28T03:51:27.653Z,99978.09
2023-02-28T03:53:06.033Z,99984.16
2023-02-28T03:54:45.998Z,99971.81
2023-02-28T03:56:22.942Z,99973.59
2023-02-28T03:58:02.817Z,99976.31
2023-02-28T03:59:40.050Z,99983.19
2023-02-28T04:01:21.407Z,99984.00
2023-02-28T04:02:55.834Z,99987.41
2023-02-28T04:04:29.409Z,99993.56
2023-02-28T04:06:02.911Z,99997.03
2023-02-28T04:07:36.812Z,99993.56
2023-02-28T04:10:52.125Z,100005.94
2023-02-28T04:12:25.938Z,99998.09
2023-02-28T04:13:59.266Z,99991.25
2023-02-28T04:15:33.306Z,99991.28
2023-02-28T04:17:07.249Z,99993.81
2023-02-28T04:18:41.318Z,99993.81
2023-02-28T04:20:15.590Z,99992.00
2023-02-28T04:21:51.059Z,99991.94
2023-02-28T04:23:24.661Z,99994.50
2023-02-28T04:24:57.007Z,99991.84
2023-02-28T04:26:33.468Z,99998.81
2023-02-28T04:28:07.118Z,99999.69
2023-02-28T04:29:40.782Z,100003.13
2023-02-28T04:31:14.084Z,99996.94
2023-02-28T04:32:47.665Z,99999.66
2023-02-28T04:34:22.435Z,99996.13
2023-02-28T04:36:03.751Z,99997.88
2023-02-28T04:37:37.996Z,100004.81
2023-02-28T04:39:11.906Z,99993.38
2023-02-28T04:40:45.633Z,100008.22
2023-02-28T04:42:20.365Z,100006.41
2023-02-28T04:43:54.583Z,100004.59
2023-02-28T04:45:31.240Z,100004.56
2023-02-28T04:47:05.292Z,100000.97
2023-02-28T04:48:40.260Z,100003.69
2023-02-28T04:50:13.601Z,100002.81
2023-02-28T04:51:46.886Z,100006.31
2023-02-28T04:53:20.613Z,99999.31
2023-02-28T04:54:54.019Z,100002.84
2023-02-28T04:56:27.247Z,99997.63
2023-02-28T04:58:02.287Z,100005.56
2023-02-28T04:59:35.798Z,100003.13
2023-02-28T05:01:18.473Z,100012.06
2023-02-28T05:02:51.828Z,100006.88
2023-02-28T05:04:25.073Z,100007.84
2023-02-28T05:05:57.250Z,100006.09
2023-02-28T05:07:30.901Z,99999.97
2023-02-28T05:09:04.968Z,100013.00
2023-02-28T05:10:38.756Z,100022.56
2023-02-28T05:12:12.066Z,100015.41
2023-02-28T05:13:47.578Z,100012.88
2023-02-28T05:15:20.993Z,100018.97
2023-02-28T05:16:54.545Z,100013.78
2023-02-28T05:18:27.895Z,100019.91
2023-02-28T05:20:14.666Z,100018.97
2023-02-28T05:21:54.241Z,100025.88
2023-02-28T05:23:27.380Z,100024.06
2023-02-28T05:25:01.399Z,100034.56
2023-02-28T05:26:37.403Z,100031.09
2023-02-28T05:28:11.070Z,100039.94
2023-02-28T05:29:45.845Z,100039.09
2023-02-28T05:31:18.183Z,100038.34
2023-02-28T05:32:53.686Z,100033.97
2023-02-28T05:34:27.113Z,100045.38
2023-02-28T05:36:00.403Z,100038.34
2023-02-28T05:37:32.500Z,100048.97
2023-02-28T05:39:07.310Z,100037.00
2023-02-28T05:40:41.621Z,100047.81
2023-02-28T05:42:15.033Z,100056.78
2023-02-28T05:43:48.978Z,100057.13
2023-02-28T05:45:23.815Z,100051.97
2023-02-28T05:46:57.076Z,100060.84
2023-02-28T05:48:29.397Z,100055.66
2023-02-28T05:50:02.700Z,100058.34
2023-02-28T05:51:37.461Z,100069.81
2023-02-28T05:53:11.598Z,100069.06
2023-02-28T05:54:44.781Z,100060.28
2023-02-28T05:56:18.076Z,100076.97
2023-02-28T05:57:51.785Z,100078.69
2023-02-28T05:59:25.125Z,100076.09
2023-02-28T06:01:00.356Z,100078.78
2023-02-28T06:02:33.697Z,100063.16
2023-02-28T06:04:14.302Z,100071.03
2023-02-28T06:05:52.680Z,100072.69
2023-02-28T06:07:25.781Z,100073.66
2023-02-28T06:08:59.248Z,100070.22
2023-02-28T06:10:31.823Z,100078.94
2023-02-28T06:12:08.350Z,100082.41
2023-02-28T06:13:42.028Z,100078.91
2023-02-28T06:15:16.284Z,100069.31
2023-02-28T06:16:51.123Z,100078.88
2023-02-28T06:18:24.465Z,100085.88
2023-02-28T06:19:57.935Z,100075.38
2023-02-28T06:21:31.730Z,100079.81
2023-02-28T06:23:05.643Z,100078.91
2023-02-28T06:24:39.071Z,100072.75
2023-02-28T06:26:12.503Z,100076.28
2023-02-28T06:27:46.282Z,100078.09
2023-02-28T06:29:20.058Z,100082.44
2023-02-28T06:30:53.509Z,100079.81
2023-02-28T06:32:28.683Z,100089.44
2023-02-28T06:34:00.840Z,100080.66
2023-02-28T06:35:34.300Z,100073.59
2023-02-28T06:37:07.727Z,100079.69
2023-02-28T06:38:42.097Z,100073.50
2023-02-28T06:40:16.083Z,100077.03
2023-02-28T06:41:55.513Z,100068.25
2023-02-28T06:43:31.199Z,100068.31
2023-02-28T06:45:10.338Z,100079.72
2023-02-28T06:46:44.382Z,100071.75
2023-02-28T06:48:20.126Z,100072.53
2023-02-28T06:49:53.672Z,100068.13
2023-02-28T06:51:28.375Z,100065.41
2023-02-28T06:53:01.655Z,100066.28
2023-02-28T06:54:35.042Z,100075.13
2023-02-28T06:56:09.634Z,100066.44
2023-02-28T06:57:42.969Z,100064.72
2023-02-28T06:59:16.106Z,100072.63
2023-02-28T07:00:53.425Z,100077.03
2023-02-28T07:02:26.717Z,100076.13
2023-02-28T07:04:02.378Z,100087.53
2023-02-28T07:05:37.092Z,100084.84
2023-02-28T07:07:10.504Z,100080.44
2023-02-28T07:08:43.928Z,100083.94
2023-02-28T07:10:20.115Z,100094.44
2023-02-28T07:11:53.478Z,100098.84
2023-02-28T07:13:27.106Z,100101.47
2023-02-28T07:15:00.659Z,100099.69
2023-02-28T07:16:33.793Z,100096.31
2023-02-28T07:18:07.234Z,100099.72
2023-02-28T07:19:42.380Z,100101.47
2023-02-28T07:21:22.732Z,100097.09
2023-02-28T07:23:08.929Z,100103.16
2023-02-28T07:24:56.039Z,100108.47
2023-02-28T07:26:30.142Z,100105.81
2023-02-28T07:28:03.736Z,100111.03
2023-02-28T07:29:38.443Z,100109.28
2023-02-28T07:31:13.477Z,100116.31
2023-02-28T07:32:47.250Z,100114.56
2023-02-28T07:34:20.502Z,100120.75
2023-02-28T07:36:21.770Z,100120.66
2023-02-28T07:38:02.107Z,100114.59
2023-02-28T07:39:35.319Z,100107.63
2023-02-28T07:41:08.771Z,100118.19
2023-02-28T07:42:43.117Z,100116.44
2023-02-28T07:44:16.741Z,100115.47
2023-02-28T07:45:49.997Z,100124.22
2023-02-28T07:47:25.500Z,100117.19
2023-02-28T07:49:00.828Z,100119.81
2023-02-28T07:50:36.254Z,100122.38
2023-02-28T07:52:12.308Z,100131.16
2023-02-28T07:53:45.644Z,100126.84
2023-02-28T07:55:19.580Z,100118.91
2023-02-28T07:56:52.968Z,100124.22
2023-02-28T07:58:26.893Z,100120.81
2023-02-28T08:00:03.541Z,100120.81
2023-02-28T08:01:46.148Z,100107.72
2023-02-28T08:03:20.301Z,100113.75
2023-02-28T08:04:53.807Z,100118.13
2023-02-28T08:06:27.866Z,100112.81
2023-02-28T08:08:02.955Z,100118.19
2023-02-28T08:09:36.930Z,100110.38
2023-02-28T08:11:10.068Z,100113.81
2023-02-28T08:12:43.316Z,100120.91
2023-02-28T08:14:17.660Z,100129.63
2023-02-28T08:15:50.945Z,100125.28
2023-02-28T08:17:24.238Z,100126.25
2023-02-28T08:18:57.600Z,100122.84
2023-02-28T08:20:31.119Z,100128.94
2023-02-28T08:22:04.831Z,100125.41
2023-02-28T08:23:39.770Z,100114.03
2023-02-28T08:25:13.165Z,100135.91
2023-02-28T08:26:46.577Z,100125.47
2023-02-28T08:28:20.305Z,100135.03
2023-02-28T08:29:53.498Z,100131.53
2023-02-28T08:31:26.831Z,100139.38
2023-02-28T08:33:00.750Z,100133.22
2023-02-28T08:34:34.244Z,100129.69
2023-02-28T08:36:09.052Z,100134.03
2023-02-28T08:37:42.411Z,100140.22
2023-02-28T08:39:17.629Z,100134.97
2023-02-28T08:40:50.822Z,100142.06
2023-02-28T08:42:24.169Z,100137.72
2023-02-28T08:43:57.407Z,100133.28
2023-02-28T08:45:30.842Z,100142.06
2023-02-28T08:47:04.503Z,100141.19
2023-02-28T08:48:38.953Z,100154.34
2023-02-28T08:50:14.560Z,100145.59
2023-02-28T08:51:48.365Z,100145.66
2023-02-28T08:53:34.754Z,100145.63
2023-02-28T08:55:23.120Z,100151.81
2023-02-28T08:57:16.954Z,100151.84
2023-02-28T08:59:16.766Z,100152.75
2023-02-28T09:01:11.311Z,100143.97
2023-02-28T09:02:57.369Z,100145.69
2023-02-28T09:04:42.803Z,100152.75
2023-02-28T09:06:32.080Z,100144.88
2023-02-28T09:08:18.329Z,100151.03
2023-02-28T09:10:11.836Z,100152.66
2023-02-28T09:11:59.814Z,100150.84
2023-02-28T09:13:47.537Z,100149.97
2023-02-28T09:15:40.733Z,100156.97
2023-02-28T09:17:48.807Z,100156.00
2023-02-28T09:19:49.377Z,100148.16
2023-02-28T09:21:35.632Z,100157.81
2023-02-28T09:23:28.774Z,100166.53
2023-02-28T09:25:15.955Z,100162.06
2023-02-28T09:27:05.578Z,100165.41
2023-02-28T09:29:20.811Z,100162.69
2023-02-28T09:31:20.971Z,100167.97
2023-02-28T09:33:25.528Z,100169.78
2023-02-28T09:35:30.831Z,100163.69
2023-02-28T09:37:17.710Z,100167.97
2023-02-28T09:39:10.771Z,100157.50
2023-02-28T09:41:01.757Z,100162.72
2023-02-28T09:42:56.999Z,100166.25
2023-02-28T09:45:00.817Z,100168.81
2023-02-28T09:46:51.803Z,100161.81
2023-02-28T09:48:50.819Z,100167.88
2023-02-28T09:50:40.885Z,100161.69
2023-02-28T09:52:36.759Z,100167.81
2023-02-28T09:54:20.372Z,100158.97
2023-02-28T09:56:16.801Z,100160.69
2023-02-28T09:58:18.739Z,100153.72
2023-02-28T10:00:22.891Z,100147.63
2023-02-28T10:02:09.038Z,100150.16
2023-02-28T10:04:01.335Z,100148.41
2023-02-28T10:05:50.845Z,100151.78
2023-02-28T10:08:04.760Z,100155.19
2023-02-28T10:10:10.787Z,100145.53
2023-02-28T10:12:10.849Z,100145.59
2023-02-28T10:14:11.793Z,100149.84
2023-02-28T10:16:03.466Z,100148.97
2023-02-28T10:18:08.372Z,100156.00
2023-02-28T10:20:09.089Z,100152.47
2023-02-28T10:22:03.624Z,100153.28
2023-02-28T10:23:53.067Z,100158.47
2023-02-28T10:25:33.044Z,100149.63
2023-02-28T10:27:24.665Z,100140.81
2023-02-28T10:29:13.075Z,100146.88
2023-02-28T10:31:14.232Z,100134.81
2023-02-28T10:33:07.993Z,100132.28
2023-02-28T10:35:07.893Z,100132.28
2023-02-28T10:37:14.766Z,100138.41
2023-02-28T10:39:08.849Z,100118.31
2023-02-28T10:40:56.336Z,100128.88
2023-02-28T10:42:55.786Z,100134.22
2023-02-28T10:44:50.836Z,100130.72
2023-02-28T10:46:31.522Z,100127.00
2023-02-28T10:48:38.843Z,100126.91
2023-02-28T10:50:55.463Z,100116.34
2023-02-28T10:52:39.570Z,100120.78
2023-02-28T10:54:27.820Z,100119.03
2023-02-28T10:56:23.319Z,100118.06
2023-02-28T10:58:23.685Z,100114.63
2023-02-28T11:00:26.845Z,100125.28
2023-02-28T11:02:45.935Z,100108.78
2023-02-28T11:04:52.007Z,100117.56
2023-02-28T11:06:38.784Z,100115.00
2023-02-28T11:08:33.883Z,100113.28
2023-02-28T11:10:22.633Z,100122.09
2023-02-28T11:12:17.884Z,100115.09
2023-02-28T11:14:08.106Z,100116.91
2023-02-28T11:16:09.005Z,100113.44
2023-02-28T11:17:56.579Z,100105.56
2023-02-28T11:19:49.097Z,100109.00
2023-02-28T11:21:38.982Z,100104.69
2023-02-28T11:23:37.847Z,100102.16
2023-02-28T11:25:32.185Z,100100.41
2023-02-28T11:27:55.949Z,100095.19
2023-02-28T11:29:48.893Z,100108.41
2023-02-28T11:31:49.905Z,100097.81
2023-02-28T11:33:46.047Z,100101.22
2023-02-28T11:35:43.823Z,100101.22
2023-02-28T11:37:32.243Z,100097.69
2023-02-28T11:39:28.365Z,100095.94
2023-02-28T11:41:40.257Z,100099.38
2023-02-28T11:43:47.249Z,100099.41
2023-02-28T11:45:31.001Z,100094.16
2023-02-28T11:47:15.161Z,100087.19
2023-02-28T11:49:00.587Z,100089.78
2023-02-28T11:50:50.020Z,100094.13
2023-02-28T11:52:36.571Z,100087.09
2023-02-28T11:54:26.765Z,100088.78
2023-02-28T11:56:06.434Z,100081.84
2023-02-28T11:57:55.488Z,100083.69
2023-02-28T11:59:53.300Z,100089.81
2023-02-28T12:01:43.317Z,100085.41
2023-02-28T12:03:33.775Z,100078.34
2023-02-28T12:05:20.086Z,100080.03
2023-02-28T12:07:03.744Z,100075.69
2023-02-28T12:08:51.475Z,100087.13
2023-02-28T12:10:27.307Z,100074.91
2023-02-28T12:12:11.743Z,100079.31
2023-02-28T12:13:56.725Z,100076.66
2023-02-28T12:15:44.897Z,100083.72
2023-02-28T12:17:28.779Z,100083.81
2023-02-28T12:19:15.444Z,100078.53
2023-02-28T12:20:53.614Z,100077.56
2023-02-28T12:22:32.696Z,100077.53
2023-02-28T12:24:21.203Z,100084.53
2023-02-28T12:26:04.578Z,100093.38
2023-02-28T12:27:42.439Z,100095.19
2023-02-28T12:29:21.422Z,100096.06
2023-02-28T12:31:01.014Z,100096.00
2023-02-28T12:32:37.606Z,100092.44
2023-02-28T12:34:18.037Z,100091.63
2023-02-28T12:35:56.724Z,100094.28
2023-02-28T12:37:33.992Z,100099.53
2023-02-28T12:39:13.440Z,100093.38
2023-02-28T12:40:51.179Z,100079.47
2023-02-28T12:42:30.294Z,100077.75
2023-02-28T12:44:11.305Z,100087.31
2023-02-28T12:45:51.068Z,100099.56
2023-02-28T12:47:27.156Z,100089.03
2023-02-28T12:49:07.347Z,100089.06
2023-02-28T12:50:43.237Z,100084.56
2023-02-28T12:52:22.808Z,100096.84
2023-02-28T12:54:07.202Z,100088.88
2023-02-28T12:55:46.524Z,100089.72
2023-02-28T12:57:29.685Z,100089.72
2023-02-28T12:59:13.033Z,100092.38
2023-02-28T13:01:05.764Z,100094.06
2023-02-28T13:03:24.946Z,100094.03
2023-02-28T13:05:27.529Z,100090.47
2023-02-28T13:07:26.576Z,100090.50
2023-02-28T13:09:07.101Z,100081.81
2023-02-28T13:10:44.505Z,100073.97
2023-02-28T13:12:21.654Z,100077.47
2023-02-28T13:14:01.222Z,100071.25
2023-02-28T13:15:39.217Z,100076.44
2023-02-28T13:17:15.193Z,100083.53
2023-02-28T13:18:49.371Z,100071.34
2023-02-28T13:20:25.542Z,100084.63
2023-02-28T13:22:00.170Z,100086.38
2023-02-28T13:24:06.173Z,100078.53
2023-02-28T13:25:58.487Z,100095.09
2023-02-28T13:27:37.815Z,100094.28
2023-02-28T13:29:39.835Z,100081.19
2023-02-28T13:31:13.304Z,100081.22
2023-02-28T13:32:46.487Z,100083.88
2023-02-28T13:34:19.623Z,100090.94
2023-02-28T13:36:25.182Z,100092.66
2023-02-28T13:38:17.515Z,100090.84
2023-02-28T13:39:54.471Z,100092.59
2023-02-28T13:41:45.478Z,100089.09
2023-02-28T13:43:27.875Z,100100.47
2023-02-28T13:45:26.200Z,100096.91
2023-02-28T13:47:31.774Z,100091.66
2023-02-28T13:49:30.099Z,100087.28
2023-02-28T13:51:41.977Z,100079.47
2023-02-28T13:53:50.591Z,100087.34
2023-02-28T13:55:34.457Z,100088.13
2023-02-28T13:57:22.981Z,100079.38
2023-02-28T13:59:01.156Z,100089.09
2023-02-28T14:00:46.212Z,100082.22
2023-02-28T14:02:43.389Z,100082.22
2023-02-28T14:04:56.512Z,100075.13
2023-02-28T14:06:33.456Z,100068.16
2023-02-28T14:08:14.862Z,100069.91
2023-02-28T14:09:54.198Z,100076.03
2023-02-28T14:11:35.928Z,100078.69
2023-02-28T14:13:31.852Z,100076.84
2023-02-28T14:15:07.023Z,100075.91
2023-02-28T14:16:46.166Z,100082.94
2023-02-28T14:18:27.353Z,100087.34
2023-02-28T14:20:01.013Z,100089.09
2023-02-28T14:21:36.685Z,100089.19
2023-02-28T14:23:20.566Z,100090.88
2023-02-28T14:25:17.849Z,100082.03
2023-02-28T14:27:05.815Z,100090.94
2023-02-28T14:28:58.040Z,100096.22
2023-02-28T14:31:03.060Z,100089.28
2023-02-28T14:32:44.046Z,100094.53
2023-02-28T14:34:34.679Z,100101.50
2023-02-28T14:36:20.442Z,100097.16
2023-02-28T14:37:55.697Z,100104.22
2023-02-28T14:39:32.509Z,100100.75
2023-02-28T14:41:09.189Z,100092.84
2023-02-28T14:42:49.816Z,100102.56
2023-02-28T14:44:24.932Z,100103.38
2023-02-28T14:46:01.735Z,100101.66
2023-02-28T14:47:37.709Z,100099.03
2023-02-28T14:49:22.527Z,100101.66
2023-02-28T14:50:59.232Z,100097.34
2023-02-28T14:52:34.554Z,100107.88
2023-02-28T14:54:07.862Z,100093.06
2023-02-28T14:55:47.493Z,100109.63
2023-02-28T14:57:25.848Z,100111.38
2023-02-28T14:59:00.617Z,100108.81
2023-02-28T15:00:35.968Z,100123.69
2023-02-28T15:02:19.883Z,100107.88
2023-02-28T15:04:02.409Z,100110.53
2023-02-28T15:05:37.237Z,100112.31
2023-02-28T15:07:11.042Z,100114.09
2023-02-28T15:08:44.225Z,100119.38
2023-02-28T15:10:21.024Z,100106.31
2023-02-28T15:11:54.334Z,100113.19
2023-02-28T15:13:38.190Z,100106.16
2023-02-28T15:15:19.596Z,100112.34
2023-02-28T15:16:58.322Z,100100.03
2023-02-28T15:18:45.802Z,100111.47
2023-02-28T15:20:20.442Z,100114.09
2023-02-28T15:22:00.239Z,100110.66
2023-02-28T15:23:35.101Z,100119.44
2023-02-28T15:25:12.208Z,100113.31
2023-02-28T15:26:58.691Z,100106.28
2023-02-28T15:28:32.778Z,100115.00
2023-02-28T15:30:09.574Z,100104.44
2023-02-28T15:31:57.002Z,100102.75
2023-02-28T15:33:32.240Z,100115.91
2023-02-28T15:35:22.507Z,100114.13
2023-02-28T15:36:55.894Z,100117.63
2023-02-28T15:38:30.479Z,100121.16
2023-02-28T15:40:13.785Z,100115.94
2023-02-28T15:41:47.215Z,100113.34
2023-02-28T15:43:26.918Z,100115.97
2023-02-28T15:45:00.780Z,100108.97
2023-02-28T15:46:34.145Z,100117.75
2023-02-28T15:48:18.640Z,100115.13
2023-02-28T15:49:55.083Z,100110.72
2023-02-28T15:51:33.710Z,100095.03
2023-02-28T15:53:15.870Z,100114.28
2023-02-28T15:54:49.804Z,100107.25
2023-02-28T15:56:27.083Z,100117.78
2023-02-28T15:58:03.999Z,100114.25
2023-02-28T15:59:39.082Z,100116.81
2023-02-28T16:01:26.523Z,100123.72
2023-02-28T16:02:59.849Z,100122.84
2023-02-28T16:04:34.520Z,100122.88
2023-02-28T16:06:30.352Z,100125.56
2023-02-28T16:08:15.486Z,100123.00
2023-02-28T16:09:49.223Z,100117.81
2023-02-28T16:11:23.749Z,100128.28
2023-02-28T16:12:58.436Z,100119.47
2023-02-28T16:14:32.778Z,100135.25
2023-02-28T16:16:06.611Z,100133.47
2023-02-28T16:17:41.487Z,100135.19
2023-02-28T16:19:15.202Z,100135.16
2023-02-28T16:20:49.723Z,100137.78
2023-02-28T16:22:23.210Z,100132.63
2023-02-28T16:23:56.431Z,100130.84
2023-02-28T16:25:36.643Z,100137.00
2023-02-28T16:27:18.876Z,100134.38
2023-02-28T16:28:53.466Z,100132.63
2023-02-28T16:30:29.214Z,100129.09
2023-02-28T16:32:04.011Z,100137.78
2023-02-28T16:33:37.271Z,100140.41
2023-02-28T16:35:13.229Z,100136.06
2023-02-28T16:36:49.330Z,100142.19
2023-02-28T16:38:22.761Z,100144.75
2023-02-28T16:39:56.184Z,100142.19
2023-02-28T16:41:31.230Z,100147.38
2023-02-28T16:43:09.527Z,100142.09
2023-02-28T16:44:42.949Z,100145.63
2023-02-28T16:46:17.696Z,100148.28
2023-02-28T16:47:51.064Z,100141.28
2023-02-28T16:49:24.325Z,100144.84
2023-02-28T16:50:58.294Z,100140.44
2023-02-28T16:52:32.838Z,100138.72
2023-02-28T16:54:06.098Z,100140.50
2023-02-28T16:55:39.615Z,100135.25
2023-02-28T16:57:22.059Z,100142.25
2023-02-28T16:59:00.179Z,100141.31
2023-02-28T17:00:35.156Z,100136.94
2023-02-28T17:02:14.759Z,100149.19
2023-02-28T17:03:48.236Z,100136.88
2023-02-28T17:05:21.445Z,100149.97
2023-02-28T17:06:54.843Z,100138.50
2023-02-28T17:08:30.995Z,100139.38
2023-02-28T17:10:09.680Z,100143.75
2023-02-28T17:11:42.901Z,100147.22
2023-02-28T17:13:16.170Z,100141.13
2023-02-28T17:14:49.580Z,100141.97
2023-02-28T17:16:27.866Z,100131.53
2023-02-28T17:18:01.095Z,100139.41
2023-02-28T17:19:35.051Z,100142.09
2023-02-28T17:21:15.103Z,100142.19
2023-02-28T17:22:48.351Z,100141.31
2023-02-28T17:24:30.917Z,100145.69
2023-02-28T17:26:07.614Z,100145.69
2023-02-28T17:27:40.873Z,100143.91
2023-02-28T17:29:18.448Z,100145.66
2023-02-28T17:30:51.599Z,100150.91
2023-02-28T17:32:25.653Z,100154.41
2023-02-28T17:33:59.143Z,100150.00
2023-02-28T17:35:32.503Z,100149.19
2023-02-28T17:37:05.726Z,100157.97
2023-02-28T17:38:38.919Z,100156.19
2023-02-28T17:40:18.275Z,100156.16
2023-02-28T17:41:51.535Z,100164.06
2023-02-28T17:43:24.761Z,100159.63
2023-02-28T17:44:57.937Z,100157.84
2023-02-28T17:46:31.816Z,100155.22
2023-02-28T17:48:05.747Z,100157.84
2023-02-28T17:49:38.944Z,100166.56
2023-02-28T17:51:14.901Z,100161.28
2023-02-28T17:52:48.177Z,100162.97
2023-02-28T17:54:21.411Z,100160.34
2023-02-28T17:55:56.101Z,100158.59
2023-02-28T17:57:29.345Z,100154.22
2023-02-28T17:59:02.705Z,100150.75
2023-02-28T18:00:35.848Z,100159.50
2023-02-28T18:02:09.169Z,100158.63
2023-02-28T18:03:42.329Z,100161.28
2023-02-28T18:05:15.712Z,100162.19
2023-02-28T18:06:51.183Z,100156.97
2023-02-28T18:08:25.323Z,100153.41
2023-02-28T18:09:59.947Z,100150.75
2023-02-28T18:11:44.730Z,100159.53
2023-02-28T18:13:18.070Z,100154.28
2023-02-28T18:14:51.288Z,100156.94
2023-02-28T18:16:24.618Z,100155.19
2023-02-28T18:17:58.218Z,100151.69
2023-02-28T18:19:31.543Z,100140.38
2023-02-28T18:21:06.190Z,100150.88
2023-02-28T18:22:41.289Z,100147.38
2023-02-28T18:24:16.082Z,100143.81
2023-02-28T18:25:49.672Z,100143.81
2023-02-28T18:27:24.457Z,100148.16
2023-02-28T18:28:59.766Z,100138.50
2023-02-28T18:30:37.540Z,100142.03
2023-02-28T18:32:11.264Z,100136.78
2023-02-28T18:33:45.252Z,100137.69
2023-02-28T18:35:36.236Z,100139.44
2023-02-28T18:37:11.721Z,100133.28
2023-02-28T18:38:46.115Z,100133.28
2023-02-28T18:40:19.657Z,100131.56
2023-02-28T18:41:52.958Z,100136.00
2023-02-28T18:43:27.989Z,100128.22
2023-02-28T18:45:01.140Z,100127.41
2023-02-28T18:46:35.608Z,100130.09
2023-02-28T18:48:08.801Z,100130.09
2023-02-28T18:49:42.598Z,100123.09
2023-02-28T18:51:18.450Z,100120.41
2023-02-28T18:52:51.904Z,100121.28
2023-02-28T18:54:25.713Z,100135.28
2023-02-28T18:56:01.854Z,100124.75
2023-02-28T18:57:37.838Z,100130.94
2023-02-28T18:59:12.742Z,100124.78
2023-02-28T19:00:45.950Z,100114.25
2023-02-28T19:02:19.495Z,100124.75
2023-02-28T19:03:52.945Z,100119.47
2023-02-28T19:05:28.174Z,100120.41
2023-02-28T19:07:02.988Z,100124.78
2023-02-28T19:08:36.336Z,100114.28
2023-02-28T19:10:11.942Z,100122.19